sensor_id;sensor_type;location;lat;lon;timestamp;P1;durP1;ratioP1;P2;durP2;ratioP2
17631;SDS011;8934;51.194;17.150;2023-05-13T00:01:15;9.23;;;5.28;;
17631;SDS011;8934;51.194;17.150;2023-05-13T00:04:03;7.45;;;4.97;;
17631;SDS011;8934;51.194;17.150;2023-05-13T00:06:51;8.10;;;4.70;;
17631;SDS011;8934;51.194;17.150;2023-05-13T00:09:38;6.82;;;5.38;;
17631;SDS011;8934;51.194;17.150;2023-05-13T00:12:27;8.25;;;5.25;;
17631;SDS011;8934;51.194;17.150;2023-05-13T00:15:15;8.15;;;4.93;;
17631;SDS011;8934;51.194;17.150;2023-05-13T00:18:03;7.78;;;5.22;;
17631;SDS011;8934;51.194;17.150;2023-05-13T00:20:50;6.90;;;4.97;;
17631;SDS011;8934;51.194;17.150;2023-05-13T00:23:38;8.93;;;5.13;;
17631;SDS011;8934;51.194;17.150;2023-05-13T00:26:26;11.18;;;5.40;;
17631;SDS011;8934;51.194;17.150;2023-05-13T00:29:15;8.95;;;4.80;;
17631;SDS011;8934;51.194;17.150;2023-05-13T00:32:03;8.48;;;5.07;;
17631;SDS011;8934;51.194;17.150;2023-05-13T00:34:53;11.70;;;5.25;;
17631;SDS011;8934;51.194;17.150;2023-05-13T00:37:40;7.00;;;4.22;;
17631;SDS011;8934;51.194;17.150;2023-05-13T00:40:27;8.30;;;5.10;;
17631;SDS011;8934;51.194;17.150;2023-05-13T00:43:15;6.25;;;4.65;;
17631;SDS011;8934;51.194;17.150;2023-05-13T00:46:04;7.60;;;3.92;;
17631;SDS011;8934;51.194;17.150;2023-05-13T00:48:52;10.95;;;5.30;;
17631;SDS011;8934;51.194;17.150;2023-05-13T00:51:41;8.63;;;5.35;;
17631;SDS011;8934;51.194;17.150;2023-05-13T00:54:28;9.02;;;5.03;;
17631;SDS011;8934;51.194;17.150;2023-05-13T00:57:16;6.68;;;4.47;;
17631;SDS011;8934;51.194;17.150;2023-05-13T01:00:05;6.97;;;4.75;;
17631;SDS011;8934;51.194;17.150;2023-05-13T01:02:56;9.48;;;5.53;;
17631;SDS011;8934;51.194;17.150;2023-05-13T01:05:49;6.68;;;4.78;;
17631;SDS011;8934;51.194;17.150;2023-05-13T01:08:46;7.15;;;5.03;;
17631;SDS011;8934;51.194;17.150;2023-05-13T01:11:42;8.18;;;4.65;;
17631;SDS011;8934;51.194;17.150;2023-05-13T01:14:32;7.20;;;4.90;;
17631;SDS011;8934;51.194;17.150;2023-05-13T01:17:23;9.38;;;4.97;;
17631;SDS011;8934;51.194;17.150;2023-05-13T01:20:20;7.80;;;5.30;;
17631;SDS011;8934;51.194;17.150;2023-05-13T01:23:10;7.70;;;4.95;;
17631;SDS011;8934;51.194;17.150;2023-05-13T01:25:58;8.65;;;5.10;;
17631;SDS011;8934;51.194;17.150;2023-05-13T01:28:48;9.77;;;4.88;;
17631;SDS011;8934;51.194;17.150;2023-05-13T01:31:36;7.85;;;4.70;;
17631;SDS011;8934;51.194;17.150;2023-05-13T01:34:27;6.65;;;4.70;;
17631;SDS011;8934;51.194;17.150;2023-05-13T01:37:15;8.55;;;4.47;;
17631;SDS011;8934;51.194;17.150;2023-05-13T01:40:06;6.75;;;4.70;;
17631;SDS011;8934;51.194;17.150;2023-05-13T01:43:16;7.28;;;5.00;;
17631;SDS011;8934;51.194;17.150;2023-05-13T01:46:10;9.43;;;4.63;;
17631;SDS011;8934;51.194;17.150;2023-05-13T01:48:58;7.45;;;4.50;;
17631;SDS011;8934;51.194;17.150;2023-05-13T01:51:46;8.20;;;4.90;;
17631;SDS011;8934;51.194;17.150;2023-05-13T01:54:34;6.25;;;4.57;;
17631;SDS011;8934;51.194;17.150;2023-05-13T01:57:28;9.38;;;5.07;;
17631;SDS011;8934;51.194;17.150;2023-05-13T02:00:15;6.88;;;5.05;;
17631;SDS011;8934;51.194;17.150;2023-05-13T02:03:07;6.55;;;4.68;;
17631;SDS011;8934;51.194;17.150;2023-05-13T02:05:54;8.15;;;5.45;;
17631;SDS011;8934;51.194;17.150;2023-05-13T02:08:42;6.38;;;4.90;;
17631;SDS011;8934;51.194;17.150;2023-05-13T02:11:30;7.50;;;5.70;;
17631;SDS011;8934;51.194;17.150;2023-05-13T02:14:18;7.93;;;5.00;;
17631;SDS011;8934;51.194;17.150;2023-05-13T02:17:06;8.40;;;4.82;;
17631;SDS011;8934;51.194;17.150;2023-05-13T02:19:54;9.50;;;5.47;;
17631;SDS011;8934;51.194;17.150;2023-05-13T02:22:42;8.02;;;5.32;;
17631;SDS011;8934;51.194;17.150;2023-05-13T02:25:29;8.15;;;5.03;;
17631;SDS011;8934;51.194;17.150;2023-05-13T02:28:17;6.80;;;5.03;;
17631;SDS011;8934;51.194;17.150;2023-05-13T02:31:06;6.93;;;4.85;;
17631;SDS011;8934;51.194;17.150;2023-05-13T02:33:53;7.07;;;5.07;;
17631;SDS011;8934;51.194;17.150;2023-05-13T02:36:40;7.35;;;5.05;;
17631;SDS011;8934;51.194;17.150;2023-05-13T02:39:28;7.07;;;5.30;;
17631;SDS011;8934;51.194;17.150;2023-05-13T02:42:16;7.28;;;5.30;;
17631;SDS011;8934;51.194;17.150;2023-05-13T02:45:05;9.15;;;5.55;;
17631;SDS011;8934;51.194;17.150;2023-05-13T02:47:58;8.13;;;5.70;;
17631;SDS011;8934;51.194;17.150;2023-05-13T02:50:47;9.23;;;6.28;;
17631;SDS011;8934;51.194;17.150;2023-05-13T02:53:34;10.43;;;6.03;;
17631;SDS011;8934;51.194;17.150;2023-05-13T02:56:24;7.30;;;5.85;;
17631;SDS011;8934;51.194;17.150;2023-05-13T02:59:12;10.25;;;5.85;;
17631;SDS011;8934;51.194;17.150;2023-05-13T03:01:59;8.25;;;5.85;;
17631;SDS011;8934;51.194;17.150;2023-05-13T03:04:48;12.80;;;6.95;;
17631;SDS011;8934;51.194;17.150;2023-05-13T03:07:36;9.43;;;6.25;;
17631;SDS011;8934;51.194;17.150;2023-05-13T03:10:23;6.93;;;5.43;;
17631;SDS011;8934;51.194;17.150;2023-05-13T03:13:11;8.48;;;5.80;;
17631;SDS011;8934;51.194;17.150;2023-05-13T03:15:58;8.75;;;5.93;;
17631;SDS011;8934;51.194;17.150;2023-05-13T03:18:46;8.15;;;5.50;;
17631;SDS011;8934;51.194;17.150;2023-05-13T03:21:36;8.32;;;6.20;;
17631;SDS011;8934;51.194;17.150;2023-05-13T03:24:27;9.40;;;6.03;;
17631;SDS011;8934;51.194;17.150;2023-05-13T03:27:15;8.38;;;5.43;;
17631;SDS011;8934;51.194;17.150;2023-05-13T03:30:04;7.90;;;5.40;;
17631;SDS011;8934;51.194;17.150;2023-05-13T03:32:59;8.32;;;6.22;;
17631;SDS011;8934;51.194;17.150;2023-05-13T03:35:47;8.55;;;6.03;;
17631;SDS011;8934;51.194;17.150;2023-05-13T03:38:41;7.47;;;5.22;;
17631;SDS011;8934;51.194;17.150;2023-05-13T03:41:29;8.52;;;5.70;;
17631;SDS011;8934;51.194;17.150;2023-05-13T03:44:18;9.75;;;6.03;;
17631;SDS011;8934;51.194;17.150;2023-05-13T03:47:06;8.52;;;6.07;;
17631;SDS011;8934;51.194;17.150;2023-05-13T03:49:54;6.82;;;5.45;;
17631;SDS011;8934;51.194;17.150;2023-05-13T03:52:42;9.52;;;6.22;;
17631;SDS011;8934;51.194;17.150;2023-05-13T03:55:34;7.28;;;5.40;;
17631;SDS011;8934;51.194;17.150;2023-05-13T03:58:22;9.55;;;5.82;;
17631;SDS011;8934;51.194;17.150;2023-05-13T04:01:10;10.50;;;5.60;;
17631;SDS011;8934;51.194;17.150;2023-05-13T04:03:57;10.98;;;5.82;;
17631;SDS011;8934;51.194;17.150;2023-05-13T04:06:44;8.60;;;6.40;;
17631;SDS011;8934;51.194;17.150;2023-05-13T04:09:32;10.20;;;5.88;;
17631;SDS011;8934;51.194;17.150;2023-05-13T04:12:21;10.60;;;6.05;;
17631;SDS011;8934;51.194;17.150;2023-05-13T04:15:09;10.70;;;5.10;;
17631;SDS011;8934;51.194;17.150;2023-05-13T04:17:58;11.07;;;6.28;;
17631;SDS011;8934;51.194;17.150;2023-05-13T04:20:46;8.95;;;6.35;;
17631;SDS011;8934;51.194;17.150;2023-05-13T04:23:33;9.88;;;6.18;;
17631;SDS011;8934;51.194;17.150;2023-05-13T04:26:21;9.32;;;6.15;;
17631;SDS011;8934;51.194;17.150;2023-05-13T04:29:10;9.50;;;5.95;;
17631;SDS011;8934;51.194;17.150;2023-05-13T04:31:59;9.25;;;6.10;;
17631;SDS011;8934;51.194;17.150;2023-05-13T04:34:47;7.78;;;5.63;;
17631;SDS011;8934;51.194;17.150;2023-05-13T04:37:36;11.00;;;7.15;;
17631;SDS011;8934;51.194;17.150;2023-05-13T04:40:26;10.07;;;6.22;;
17631;SDS011;8934;51.194;17.150;2023-05-13T04:43:16;7.43;;;6.10;;
17631;SDS011;8934;51.194;17.150;2023-05-13T04:46:10;8.48;;;5.90;;
17631;SDS011;8934;51.194;17.150;2023-05-13T04:48:57;10.75;;;6.57;;
17631;SDS011;8934;51.194;17.150;2023-05-13T04:51:45;7.20;;;5.95;;
17631;SDS011;8934;51.194;17.150;2023-05-13T04:54:33;9.70;;;5.75;;
17631;SDS011;8934;51.194;17.150;2023-05-13T04:57:24;10.63;;;6.03;;
17631;SDS011;8934;51.194;17.150;2023-05-13T05:00:13;8.30;;;5.72;;
17631;SDS011;8934;51.194;17.150;2023-05-13T05:03:04;7.72;;;5.63;;
17631;SDS011;8934;51.194;17.150;2023-05-13T05:05:52;11.15;;;6.05;;
17631;SDS011;8934;51.194;17.150;2023-05-13T05:08:42;10.55;;;5.97;;
17631;SDS011;8934;51.194;17.150;2023-05-13T05:11:29;7.93;;;5.70;;
17631;SDS011;8934;51.194;17.150;2023-05-13T05:14:17;11.77;;;5.72;;
17631;SDS011;8934;51.194;17.150;2023-05-13T05:17:06;9.25;;;5.95;;
17631;SDS011;8934;51.194;17.150;2023-05-13T05:19:55;7.95;;;5.70;;
17631;SDS011;8934;51.194;17.150;2023-05-13T05:22:44;8.70;;;5.32;;
17631;SDS011;8934;51.194;17.150;2023-05-13T05:25:31;8.40;;;5.40;;
17631;SDS011;8934;51.194;17.150;2023-05-13T05:28:19;9.65;;;6.97;;
17631;SDS011;8934;51.194;17.150;2023-05-13T05:31:06;7.63;;;5.03;;
17631;SDS011;8934;51.194;17.150;2023-05-13T05:33:56;10.82;;;5.50;;
17631;SDS011;8934;51.194;17.150;2023-05-13T05:36:47;9.48;;;5.43;;
17631;SDS011;8934;51.194;17.150;2023-05-13T05:39:36;7.95;;;5.55;;
17631;SDS011;8934;51.194;17.150;2023-05-13T05:42:26;6.63;;;4.72;;
17631;SDS011;8934;51.194;17.150;2023-05-13T05:45:13;10.55;;;4.35;;
17631;SDS011;8934;51.194;17.150;2023-05-13T05:48:01;12.98;;;5.15;;
17631;SDS011;8934;51.194;17.150;2023-05-13T05:50:49;8.88;;;5.65;;
17631;SDS011;8934;51.194;17.150;2023-05-13T05:53:44;9.07;;;5.28;;
17631;SDS011;8934;51.194;17.150;2023-05-13T05:56:34;9.45;;;5.00;;
17631;SDS011;8934;51.194;17.150;2023-05-13T05:59:22;8.02;;;5.40;;
17631;SDS011;8934;51.194;17.150;2023-05-13T06:02:09;9.90;;;5.00;;
17631;SDS011;8934;51.194;17.150;2023-05-13T06:04:57;7.80;;;5.05;;
17631;SDS011;8934;51.194;17.150;2023-05-13T06:07:45;7.43;;;5.45;;
17631;SDS011;8934;51.194;17.150;2023-05-13T06:10:34;7.50;;;5.20;;
17631;SDS011;8934;51.194;17.150;2023-05-13T06:13:23;8.18;;;5.50;;
17631;SDS011;8934;51.194;17.150;2023-05-13T06:16:10;8.88;;;5.35;;
17631;SDS011;8934;51.194;17.150;2023-05-13T06:18:58;9.32;;;4.68;;
17631;SDS011;8934;51.194;17.150;2023-05-13T06:21:45;9.35;;;5.22;;
17631;SDS011;8934;51.194;17.150;2023-05-13T06:24:33;6.18;;;4.72;;
17631;SDS011;8934;51.194;17.150;2023-05-13T06:27:22;12.32;;;5.70;;
17631;SDS011;8934;51.194;17.150;2023-05-13T06:30:09;9.02;;;5.45;;
17631;SDS011;8934;51.194;17.150;2023-05-13T06:33:00;9.82;;;5.30;;
17631;SDS011;8934;51.194;17.150;2023-05-13T06:35:48;17.80;;;6.07;;
17631;SDS011;8934;51.194;17.150;2023-05-13T06:38:39;8.63;;;4.85;;
17631;SDS011;8934;51.194;17.150;2023-05-13T06:41:26;8.73;;;5.60;;
17631;SDS011;8934;51.194;17.150;2023-05-13T06:44:21;10.63;;;5.28;;
17631;SDS011;8934;51.194;17.150;2023-05-13T06:47:12;7.68;;;5.03;;
17631;SDS011;8934;51.194;17.150;2023-05-13T06:50:01;8.75;;;5.70;;
17631;SDS011;8934;51.194;17.150;2023-05-13T06:52:49;9.10;;;5.53;;
17631;SDS011;8934;51.194;17.150;2023-05-13T06:55:37;6.88;;;5.20;;
17631;SDS011;8934;51.194;17.150;2023-05-13T06:58:26;11.18;;;5.07;;
17631;SDS011;8934;51.194;17.150;2023-05-13T07:01:15;10.73;;;5.72;;
17631;SDS011;8934;51.194;17.150;2023-05-13T07:04:03;7.28;;;5.00;;
17631;SDS011;8934;51.194;17.150;2023-05-13T07:06:51;8.85;;;5.25;;
17631;SDS011;8934;51.194;17.150;2023-05-13T07:09:39;9.68;;;4.88;;
17631;SDS011;8934;51.194;17.150;2023-05-13T07:12:26;7.47;;;5.57;;
17631;SDS011;8934;51.194;17.150;2023-05-13T07:15:14;7.88;;;5.20;;
17631;SDS011;8934;51.194;17.150;2023-05-13T07:18:03;8.60;;;5.38;;
17631;SDS011;8934;51.194;17.150;2023-05-13T07:20:51;8.40;;;6.07;;
17631;SDS011;8934;51.194;17.150;2023-05-13T07:23:38;9.07;;;5.57;;
17631;SDS011;8934;51.194;17.150;2023-05-13T07:26:29;7.53;;;4.82;;
17631;SDS011;8934;51.194;17.150;2023-05-13T07:29:17;8.90;;;5.35;;
17631;SDS011;8934;51.194;17.150;2023-05-13T07:32:04;8.95;;;5.20;;
17631;SDS011;8934;51.194;17.150;2023-05-13T07:34:54;8.68;;;5.28;;
17631;SDS011;8934;51.194;17.150;2023-05-13T07:37:42;8.35;;;5.13;;
17631;SDS011;8934;51.194;17.150;2023-05-13T07:40:30;10.10;;;5.60;;
17631;SDS011;8934;51.194;17.150;2023-05-13T07:43:17;8.85;;;5.78;;
17631;SDS011;8934;51.194;17.150;2023-05-13T07:46:08;8.05;;;5.07;;
17631;SDS011;8934;51.194;17.150;2023-05-13T07:48:56;9.80;;;5.57;;
17631;SDS011;8934;51.194;17.150;2023-05-13T07:51:45;10.10;;;5.18;;
17631;SDS011;8934;51.194;17.150;2023-05-13T07:54:32;8.13;;;5.68;;
17631;SDS011;8934;51.194;17.150;2023-05-13T07:57:20;8.90;;;5.30;;
17631;SDS011;8934;51.194;17.150;2023-05-13T08:00:08;7.80;;;5.88;;
17631;SDS011;8934;51.194;17.150;2023-05-13T08:02:59;9.07;;;6.18;;
17631;SDS011;8934;51.194;17.150;2023-05-13T08:05:47;10.20;;;5.40;;
17631;SDS011;8934;51.194;17.150;2023-05-13T08:08:35;10.50;;;6.10;;
17631;SDS011;8934;51.194;17.150;2023-05-13T08:11:23;8.63;;;6.30;;
17631;SDS011;8934;51.194;17.150;2023-05-13T08:14:11;9.40;;;6.15;;
17631;SDS011;8934;51.194;17.150;2023-05-13T08:16:58;8.50;;;5.05;;
17631;SDS011;8934;51.194;17.150;2023-05-13T08:19:46;13.02;;;5.97;;
17631;SDS011;8934;51.194;17.150;2023-05-13T08:22:34;9.95;;;5.95;;
17631;SDS011;8934;51.194;17.150;2023-05-13T08:25:23;8.75;;;5.65;;
17631;SDS011;8934;51.194;17.150;2023-05-13T08:28:11;7.05;;;5.03;;
17631;SDS011;8934;51.194;17.150;2023-05-13T08:30:58;8.63;;;6.10;;
17631;SDS011;8934;51.194;17.150;2023-05-13T08:33:47;11.70;;;6.15;;
17631;SDS011;8934;51.194;17.150;2023-05-13T08:36:34;7.68;;;5.20;;
17631;SDS011;8934;51.194;17.150;2023-05-13T08:39:22;9.68;;;6.35;;
17631;SDS011;8934;51.194;17.150;2023-05-13T08:42:11;10.52;;;5.65;;
17631;SDS011;8934;51.194;17.150;2023-05-13T08:45:04;9.35;;;6.38;;
17631;SDS011;8934;51.194;17.150;2023-05-13T08:47:54;10.07;;;5.63;;
17631;SDS011;8934;51.194;17.150;2023-05-13T08:50:44;8.63;;;4.93;;
17631;SDS011;8934;51.194;17.150;2023-05-13T08:53:32;7.90;;;5.32;;
17631;SDS011;8934;51.194;17.150;2023-05-13T08:56:20;8.52;;;5.63;;
17631;SDS011;8934;51.194;17.150;2023-05-13T08:59:11;6.75;;;5.90;;
17631;SDS011;8934;51.194;17.150;2023-05-13T09:01:59;7.38;;;5.15;;
17631;SDS011;8934;51.194;17.150;2023-05-13T09:04:48;5.97;;;4.95;;
17631;SDS011;8934;51.194;17.150;2023-05-13T09:07:40;8.23;;;5.47;;
17631;SDS011;8934;51.194;17.150;2023-05-13T09:10:28;7.72;;;4.53;;
17631;SDS011;8934;51.194;17.150;2023-05-13T09:13:16;12.60;;;4.80;;
17631;SDS011;8934;51.194;17.150;2023-05-13T09:16:05;5.95;;;4.03;;
17631;SDS011;8934;51.194;17.150;2023-05-13T09:18:56;4.78;;;3.88;;
17631;SDS011;8934;51.194;17.150;2023-05-13T09:21:45;5.22;;;3.90;;
17631;SDS011;8934;51.194;17.150;2023-05-13T09:24:33;4.50;;;3.25;;
17631;SDS011;8934;51.194;17.150;2023-05-13T09:27:22;7.80;;;4.32;;
17631;SDS011;8934;51.194;17.150;2023-05-13T09:30:22;6.05;;;3.90;;
17631;SDS011;8934;51.194;17.150;2023-05-13T09:33:12;4.80;;;3.53;;
17631;SDS011;8934;51.194;17.150;2023-05-13T09:36:02;8.88;;;4.50;;
17631;SDS011;8934;51.194;17.150;2023-05-13T09:38:51;5.68;;;3.88;;
17631;SDS011;8934;51.194;17.150;2023-05-13T09:41:40;6.40;;;4.03;;
17631;SDS011;8934;51.194;17.150;2023-05-13T09:44:28;8.32;;;4.63;;
17631;SDS011;8934;51.194;17.150;2023-05-13T09:47:16;8.90;;;4.50;;
17631;SDS011;8934;51.194;17.150;2023-05-13T09:50:06;5.63;;;3.95;;
17631;SDS011;8934;51.194;17.150;2023-05-13T09:52:55;6.70;;;3.88;;
17631;SDS011;8934;51.194;17.150;2023-05-13T09:55:44;6.15;;;3.80;;
17631;SDS011;8934;51.194;17.150;2023-05-13T09:58:31;6.88;;;3.72;;
17631;SDS011;8934;51.194;17.150;2023-05-13T10:01:19;7.25;;;3.78;;
17631;SDS011;8934;51.194;17.150;2023-05-13T10:04:08;6.47;;;3.38;;
17631;SDS011;8934;51.194;17.150;2023-05-13T10:06:57;5.28;;;3.28;;
17631;SDS011;8934;51.194;17.150;2023-05-13T10:09:47;4.55;;;3.40;;
17631;SDS011;8934;51.194;17.150;2023-05-13T10:12:36;7.40;;;3.45;;
17631;SDS011;8934;51.194;17.150;2023-05-13T10:15:27;5.82;;;3.05;;
17631;SDS011;8934;51.194;17.150;2023-05-13T10:18:15;3.70;;;2.75;;
17631;SDS011;8934;51.194;17.150;2023-05-13T10:21:04;6.53;;;2.70;;
17631;SDS011;8934;51.194;17.150;2023-05-13T10:23:54;7.22;;;3.25;;
17631;SDS011;8934;51.194;17.150;2023-05-13T10:26:42;4.55;;;2.45;;
17631;SDS011;8934;51.194;17.150;2023-05-13T10:29:30;5.80;;;2.50;;
17631;SDS011;8934;51.194;17.150;2023-05-13T10:32:20;3.65;;;2.90;;
17631;SDS011;8934;51.194;17.150;2023-05-13T10:35:09;3.13;;;2.78;;
17631;SDS011;8934;51.194;17.150;2023-05-13T10:38:00;4.90;;;2.65;;
17631;SDS011;8934;51.194;17.150;2023-05-13T10:41:00;5.68;;;2.92;;
17631;SDS011;8934;51.194;17.150;2023-05-13T10:43:55;4.70;;;3.35;;
17631;SDS011;8934;51.194;17.150;2023-05-13T10:46:45;7.57;;;2.72;;
17631;SDS011;8934;51.194;17.150;2023-05-13T10:49:33;5.05;;;2.78;;
17631;SDS011;8934;51.194;17.150;2023-05-13T10:52:22;4.15;;;2.50;;
17631;SDS011;8934;51.194;17.150;2023-05-13T10:55:16;7.00;;;3.20;;
17631;SDS011;8934;51.194;17.150;2023-05-13T10:58:12;5.30;;;3.00;;
17631;SDS011;8934;51.194;17.150;2023-05-13T11:04:02;4.30;;;2.88;;
17631;SDS011;8934;51.194;17.150;2023-05-13T11:06:51;6.05;;;3.25;;
17631;SDS011;8934;51.194;17.150;2023-05-13T11:09:39;6.32;;;2.70;;
17631;SDS011;8934;51.194;17.150;2023-05-13T11:12:26;5.88;;;2.80;;
17631;SDS011;8934;51.194;17.150;2023-05-13T11:15:21;4.22;;;3.28;;
17631;SDS011;8934;51.194;17.150;2023-05-13T11:18:08;4.85;;;2.53;;
17631;SDS011;8934;51.194;17.150;2023-05-13T11:21:00;5.38;;;2.10;;
17631;SDS011;8934;51.194;17.150;2023-05-13T11:23:51;3.53;;;2.10;;
17631;SDS011;8934;51.194;17.150;2023-05-13T11:26:45;4.63;;;2.53;;
17631;SDS011;8934;51.194;17.150;2023-05-13T11:29:34;5.15;;;2.35;;
17631;SDS011;8934;51.194;17.150;2023-05-13T11:35:41;5.15;;;2.58;;
17631;SDS011;8934;51.194;17.150;2023-05-13T11:38:39;3.97;;;1.95;;
17631;SDS011;8934;51.194;17.150;2023-05-13T11:41:29;7.85;;;2.05;;
17631;SDS011;8934;51.194;17.150;2023-05-13T11:44:18;5.95;;;2.63;;
17631;SDS011;8934;51.194;17.150;2023-05-13T11:47:06;6.07;;;2.42;;
17631;SDS011;8934;51.194;17.150;2023-05-13T11:49:55;3.63;;;2.35;;
17631;SDS011;8934;51.194;17.150;2023-05-13T11:52:44;5.05;;;2.10;;
17631;SDS011;8934;51.194;17.150;2023-05-13T11:55:32;3.47;;;2.10;;
17631;SDS011;8934;51.194;17.150;2023-05-13T11:58:20;4.43;;;2.45;;
17631;SDS011;8934;51.194;17.150;2023-05-13T12:01:12;3.22;;;2.22;;
17631;SDS011;8934;51.194;17.150;2023-05-13T12:04:00;4.63;;;2.30;;
17631;SDS011;8934;51.194;17.150;2023-05-13T12:06:49;6.68;;;2.20;;
17631;SDS011;8934;51.194;17.150;2023-05-13T12:09:37;7.18;;;2.28;;
17631;SDS011;8934;51.194;17.150;2023-05-13T12:12:25;6.18;;;2.50;;
17631;SDS011;8934;51.194;17.150;2023-05-13T12:15:15;7.07;;;2.13;;
17631;SDS011;8934;51.194;17.150;2023-05-13T12:18:04;8.63;;;2.42;;
17631;SDS011;8934;51.194;17.150;2023-05-13T12:20:53;6.40;;;2.20;;
17631;SDS011;8934;51.194;17.150;2023-05-13T12:23:41;5.22;;;2.42;;
17631;SDS011;8934;51.194;17.150;2023-05-13T12:26:29;11.45;;;2.67;;
17631;SDS011;8934;51.194;17.150;2023-05-13T12:29:16;9.57;;;2.70;;
17631;SDS011;8934;51.194;17.150;2023-05-13T12:32:04;4.22;;;2.00;;
17631;SDS011;8934;51.194;17.150;2023-05-13T12:34:52;3.17;;;2.15;;
17631;SDS011;8934;51.194;17.150;2023-05-13T12:37:40;3.78;;;2.25;;
17631;SDS011;8934;51.194;17.150;2023-05-13T12:40:29;7.13;;;2.58;;
17631;SDS011;8934;51.194;17.150;2023-05-13T12:43:17;5.25;;;2.17;;
17631;SDS011;8934;51.194;17.150;2023-05-13T12:46:05;4.80;;;2.50;;
17631;SDS011;8934;51.194;17.150;2023-05-13T12:48:54;6.43;;;2.40;;
17631;SDS011;8934;51.194;17.150;2023-05-13T12:51:42;4.63;;;2.40;;
17631;SDS011;8934;51.194;17.150;2023-05-13T12:54:29;7.18;;;2.45;;
17631;SDS011;8934;51.194;17.150;2023-05-13T12:57:19;3.60;;;2.35;;
17631;SDS011;8934;51.194;17.150;2023-05-13T13:00:07;8.10;;;2.53;;
17631;SDS011;8934;51.194;17.150;2023-05-13T13:02:57;9.48;;;2.45;;
17631;SDS011;8934;51.194;17.150;2023-05-13T13:05:44;6.10;;;2.38;;
17631;SDS011;8934;51.194;17.150;2023-05-13T13:08:32;3.58;;;2.45;;
17631;SDS011;8934;51.194;17.150;2023-05-13T13:11:21;5.82;;;2.65;;
17631;SDS011;8934;51.194;17.150;2023-05-13T13:14:09;4.05;;;2.35;;
17631;SDS011;8934;51.194;17.150;2023-05-13T13:16:57;6.38;;;2.70;;
17631;SDS011;8934;51.194;17.150;2023-05-13T13:19:44;6.32;;;2.85;;
17631;SDS011;8934;51.194;17.150;2023-05-13T13:22:32;4.10;;;3.20;;
17631;SDS011;8934;51.194;17.150;2023-05-13T13:25:21;7.38;;;2.90;;
17631;SDS011;8934;51.194;17.150;2023-05-13T13:28:09;4.40;;;2.85;;
17631;SDS011;8934;51.194;17.150;2023-05-13T13:30:58;7.72;;;2.90;;
17631;SDS011;8934;51.194;17.150;2023-05-13T13:33:46;2.22;;;2.00;;
17631;SDS011;8934;51.194;17.150;2023-05-13T13:36:34;3.85;;;2.70;;
17631;SDS011;8934;51.194;17.150;2023-05-13T13:39:21;3.60;;;2.45;;
17631;SDS011;8934;51.194;17.150;2023-05-13T13:42:08;5.43;;;2.97;;
17631;SDS011;8934;51.194;17.150;2023-05-13T13:44:56;6.78;;;2.50;;
17631;SDS011;8934;51.194;17.150;2023-05-13T13:47:45;4.32;;;2.75;;
17631;SDS011;8934;51.194;17.150;2023-05-13T13:50:32;3.40;;;2.40;;
17631;SDS011;8934;51.194;17.150;2023-05-13T13:53:20;5.00;;;2.67;;
17631;SDS011;8934;51.194;17.150;2023-05-13T13:56:08;7.40;;;2.72;;
17631;SDS011;8934;51.194;17.150;2023-05-13T13:58:55;3.83;;;2.25;;
17631;SDS011;8934;51.194;17.150;2023-05-13T14:01:43;3.33;;;2.38;;
17631;SDS011;8934;51.194;17.150;2023-05-13T14:04:32;5.03;;;2.60;;
17631;SDS011;8934;51.194;17.150;2023-05-13T14:07:21;4.57;;;2.70;;
17631;SDS011;8934;51.194;17.150;2023-05-13T14:10:09;3.95;;;2.17;;
17631;SDS011;8934;51.194;17.150;2023-05-13T14:12:56;6.38;;;2.78;;
17631;SDS011;8934;51.194;17.150;2023-05-13T14:15:44;4.25;;;2.50;;
17631;SDS011;8934;51.194;17.150;2023-05-13T14:18:31;3.65;;;2.42;;
17631;SDS011;8934;51.194;17.150;2023-05-13T14:21:20;2.85;;;2.40;;
17631;SDS011;8934;51.194;17.150;2023-05-13T14:24:08;7.43;;;3.03;;
17631;SDS011;8934;51.194;17.150;2023-05-13T14:26:56;2.72;;;2.00;;
17631;SDS011;8934;51.194;17.150;2023-05-13T14:29:44;2.92;;;2.58;;
17631;SDS011;8934;51.194;17.150;2023-05-13T14:32:32;5.03;;;2.40;;
17631;SDS011;8934;51.194;17.150;2023-05-13T14:35:20;4.85;;;2.33;;
17631;SDS011;8934;51.194;17.150;2023-05-13T14:38:09;3.58;;;2.33;;
17631;SDS011;8934;51.194;17.150;2023-05-13T14:40:56;2.45;;;2.05;;
17631;SDS011;8934;51.194;17.150;2023-05-13T14:43:44;3.67;;;2.40;;
17631;SDS011;8934;51.194;17.150;2023-05-13T14:46:32;5.60;;;2.80;;
17631;SDS011;8934;51.194;17.150;2023-05-13T14:49:22;7.72;;;4.55;;
17631;SDS011;8934;51.194;17.150;2023-05-13T14:52:09;5.65;;;3.17;;
17631;SDS011;8934;51.194;17.150;2023-05-13T14:54:58;5.53;;;3.33;;
17631;SDS011;8934;51.194;17.150;2023-05-13T14:57:46;4.88;;;2.63;;
17631;SDS011;8934;51.194;17.150;2023-05-13T15:00:34;4.32;;;3.00;;
17631;SDS011;8934;51.194;17.150;2023-05-13T15:03:23;2.88;;;2.50;;
17631;SDS011;8934;51.194;17.150;2023-05-13T15:06:11;3.95;;;2.53;;
17631;SDS011;8934;51.194;17.150;2023-05-13T15:08:59;10.25;;;4.68;;
17631;SDS011;8934;51.194;17.150;2023-05-13T15:11:47;6.15;;;3.40;;
17631;SDS011;8934;51.194;17.150;2023-05-13T15:14:35;5.13;;;3.17;;
17631;SDS011;8934;51.194;17.150;2023-05-13T15:17:22;4.63;;;3.50;;
17631;SDS011;8934;51.194;17.150;2023-05-13T15:20:10;2.85;;;2.38;;
17631;SDS011;8934;51.194;17.150;2023-05-13T15:22:58;3.05;;;2.65;;
17631;SDS011;8934;51.194;17.150;2023-05-13T15:25:45;4.82;;;2.30;;
17631;SDS011;8934;51.194;17.150;2023-05-13T15:28:35;5.88;;;2.80;;
17631;SDS011;8934;51.194;17.150;2023-05-13T15:31:22;6.65;;;3.47;;
17631;SDS011;8934;51.194;17.150;2023-05-13T15:34:10;6.30;;;3.50;;
17631;SDS011;8934;51.194;17.150;2023-05-13T15:36:58;9.18;;;3.67;;
17631;SDS011;8934;51.194;17.150;2023-05-13T15:39:45;6.43;;;3.67;;
17631;SDS011;8934;51.194;17.150;2023-05-13T15:42:33;9.45;;;5.15;;
17631;SDS011;8934;51.194;17.150;2023-05-13T15:45:22;7.60;;;4.93;;
17631;SDS011;8934;51.194;17.150;2023-05-13T15:48:10;8.30;;;5.70;;
17631;SDS011;8934;51.194;17.150;2023-05-13T15:50:58;7.18;;;5.20;;
17631;SDS011;8934;51.194;17.150;2023-05-13T15:53:45;7.38;;;4.53;;
17631;SDS011;8934;51.194;17.150;2023-05-13T15:56:32;6.57;;;3.65;;
17631;SDS011;8934;51.194;17.150;2023-05-13T15:59:20;4.72;;;3.63;;
17631;SDS011;8934;51.194;17.150;2023-05-13T16:02:09;4.38;;;3.13;;
17631;SDS011;8934;51.194;17.150;2023-05-13T16:04:57;7.10;;;3.40;;
17631;SDS011;8934;51.194;17.150;2023-05-13T16:07:45;4.43;;;3.58;;
17631;SDS011;8934;51.194;17.150;2023-05-13T16:10:32;5.72;;;4.32;;
17631;SDS011;8934;51.194;17.150;2023-05-13T16:13:20;7.78;;;4.63;;
17631;SDS011;8934;51.194;17.150;2023-05-13T16:16:07;6.93;;;5.20;;
17631;SDS011;8934;51.194;17.150;2023-05-13T16:18:56;9.07;;;5.50;;
17631;SDS011;8934;51.194;17.150;2023-05-13T16:21:44;8.10;;;4.53;;
17631;SDS011;8934;51.194;17.150;2023-05-13T16:24:32;9.60;;;4.63;;
17631;SDS011;8934;51.194;17.150;2023-05-13T16:27:20;6.75;;;4.43;;
17631;SDS011;8934;51.194;17.150;2023-05-13T16:30:07;6.40;;;3.75;;
17631;SDS011;8934;51.194;17.150;2023-05-13T16:32:56;4.50;;;3.58;;
17631;SDS011;8934;51.194;17.150;2023-05-13T16:35:45;9.57;;;4.55;;
17631;SDS011;8934;51.194;17.150;2023-05-13T16:38:33;7.65;;;3.95;;
17631;SDS011;8934;51.194;17.150;2023-05-13T16:41:20;6.57;;;4.63;;
17631;SDS011;8934;51.194;17.150;2023-05-13T16:44:08;7.13;;;4.00;;
17631;SDS011;8934;51.194;17.150;2023-05-13T16:46:56;5.97;;;3.88;;
17631;SDS011;8934;51.194;17.150;2023-05-13T16:49:44;11.57;;;4.43;;
17631;SDS011;8934;51.194;17.150;2023-05-13T16:52:35;7.75;;;3.88;;
17631;SDS011;8934;51.194;17.150;2023-05-13T16:55:23;12.52;;;6.28;;
17631;SDS011;8934;51.194;17.150;2023-05-13T16:58:11;19.73;;;9.32;;
17631;SDS011;8934;51.194;17.150;2023-05-13T17:00:58;18.02;;;8.63;;